createdAt,value
2023-04-18T00:00:56.975Z,7.80
2023-04-18T00:03:23.729Z,7.90
2023-04-18T00:05:50.217Z,7.05
2023-04-18T00:08:16.807Z,6.80
2023-04-18T00:10:43.338Z,7.15
2023-04-18T00:13:10.107Z,7.33
2023-04-18T00:15:36.992Z,6.82
2023-04-18T00:18:03.654Z,7.70
2023-04-18T00:20:30.634Z,5.20
2023-04-18T00:22:57.034Z,6.97
2023-04-18T00:25:23.688Z,5.90
2023-04-18T00:27:50.256Z,6.43
2023-04-18T00:30:16.787Z,7.07
2023-04-18T00:32:43.233Z,5.85
2023-04-18T00:35:09.818Z,5.80
2023-04-18T00:37:37.119Z,5.83
2023-04-18T00:40:05.446Z,5.32
2023-04-18T00:42:31.898Z,5.82
2023-04-18T00:44:58.305Z,6.15
2023-04-18T00:47:25.709Z,5.63
2023-04-18T00:49:52.459Z,6.03
2023-04-18T00:52:19.271Z,6.57
2023-04-18T00:54:47.249Z,7.00
2023-04-18T00:57:13.816Z,6.95
2023-04-18T00:59:40.739Z,5.75
2023-04-18T01:02:07.212Z,5.47
2023-04-18T01:04:33.834Z,6.20
2023-04-18T01:07:02.292Z,5.93
2023-04-18T01:09:29.150Z,5.93
2023-04-18T01:11:55.567Z,5.20
2023-04-18T01:14:22.305Z,5.00
2023-04-18T01:16:48.872Z,4.82
2023-04-18T01:19:17.324Z,4.68
2023-04-18T01:21:43.863Z,4.88
2023-04-18T01:24:12.279Z,4.82
2023-04-18T01:26:39.454Z,4.07
2023-04-18T01:29:06.281Z,4.93
2023-04-18T01:31:37.590Z,4.65
2023-04-18T01:34:05.251Z,3.88
2023-04-18T01:36:32.622Z,4.90
2023-04-18T01:38:59.917Z,4.37
2023-04-18T01:41:27.268Z,4.57
2023-04-18T01:43:53.758Z,3.78
2023-04-18T01:46:20.169Z,4.82
2023-04-18T01:48:46.586Z,4.72
2023-04-18T01:51:13.120Z,3.93
2023-04-18T01:53:39.546Z,4.20
2023-04-18T01:56:06.149Z,4.30
2023-04-18T01:58:32.543Z,4.07
2023-04-18T02:00:58.978Z,4.93
2023-04-18T02:03:25.740Z,3.60
2023-04-18T02:05:52.315Z,4.03
2023-04-18T02:08:18.758Z,4.40
2023-04-18T02:10:45.374Z,4.10
2023-04-18T02:13:11.792Z,4.05
2023-04-18T02:15:38.200Z,4.17
2023-04-18T02:18:04.709Z,3.63
2023-04-18T02:20:31.690Z,4.28
2023-04-18T02:22:58.783Z,3.75
2023-04-18T02:25:27.488Z,4.53
2023-04-18T02:27:54.622Z,3.33
2023-04-18T02:30:21.214Z,4.43
2023-04-18T02:32:51.990Z,3.75
2023-04-18T02:35:19.673Z,3.60
2023-04-18T02:37:46.304Z,3.60
2023-04-18T02:40:13.149Z,4.27
2023-04-18T02:42:39.624Z,3.70
2023-04-18T02:45:07.539Z,4.43
2023-04-18T02:47:40.786Z,3.65
2023-04-18T02:50:17.959Z,4.25
2023-04-18T02:52:44.353Z,4.63
2023-04-18T02:55:10.958Z,4.38
2023-04-18T02:57:37.594Z,4.97
2023-04-18T03:00:06.392Z,4.53
2023-04-18T03:02:32.940Z,5.38
2023-04-18T03:04:59.559Z,4.23
2023-04-18T03:07:26.011Z,4.30
2023-04-18T03:09:52.689Z,4.32
2023-04-18T03:12:19.078Z,4.25
2023-04-18T03:14:45.642Z,4.57
2023-04-18T03:17:12.204Z,4.27
2023-04-18T03:19:38.624Z,5.50
2023-04-18T03:22:05.015Z,4.65
2023-04-18T03:24:31.386Z,4.85
2023-04-18T03:26:59.780Z,5.15
2023-04-18T03:29:26.185Z,5.10
2023-04-18T03:31:52.690Z,5.28
2023-04-18T03:34:19.212Z,4.47
2023-04-18T03:36:47.787Z,4.47
2023-04-18T03:39:14.913Z,4.50
2023-04-18T03:41:41.347Z,4.83
2023-04-18T03:44:07.760Z,4.82
2023-04-18T03:46:35.104Z,5.63
2023-04-18T03:49:01.582Z,5.63
2023-04-18T03:51:32.369Z,5.03
2023-04-18T03:53:58.804Z,4.90
2023-04-18T03:56:25.777Z,4.18
2023-04-18T03:58:52.230Z,5.18
2023-04-18T04:01:18.651Z,5.32
2023-04-18T04:03:45.168Z,5.35
2023-04-18T04:06:11.745Z,5.60
2023-04-18T04:08:38.167Z,4.95
2023-04-18T04:11:04.744Z,5.85
2023-04-18T04:13:31.143Z,5.22
2023-04-18T04:15:57.633Z,5.82
2023-04-18T04:18:30.782Z,4.50
2023-04-18T04:20:59.153Z,5.50
2023-04-18T04:23:26.815Z,5.35
2023-04-18T04:25:54.253Z,5.65
2023-04-18T04:28:23.835Z,5.93
2023-04-18T04:30:53.830Z,5.50
2023-04-18T04:33:21.265Z,5.85
2023-04-18T04:35:47.819Z,6.20
2023-04-18T04:38:15.389Z,5.57
2023-04-18T04:40:42.600Z,5.63
2023-04-18T04:43:12.493Z,5.63
2023-04-18T04:45:41.797Z,6.25
2023-04-18T04:48:09.191Z,4.93
2023-04-18T04:50:41.292Z,5.95
2023-04-18T04:53:11.722Z,5.13
2023-04-18T04:55:38.790Z,5.07
2023-04-18T04:58:05.224Z,5.50
2023-04-18T05:00:31.654Z,6.00
2023-04-18T05:02:58.513Z,5.95
2023-04-18T05:05:25.178Z,5.22
2023-04-18T05:07:51.562Z,5.37
2023-04-18T05:10:18.024Z,5.70
2023-04-18T05:12:44.546Z,6.43
2023-04-18T05:15:11.184Z,6.13
2023-04-18T05:17:37.659Z,6.00
2023-04-18T05:20:05.303Z,6.07
2023-04-18T05:22:32.401Z,6.05
2023-04-18T05:24:58.871Z,6.45
2023-04-18T05:27:26.040Z,6.13
2023-04-18T05:29:52.712Z,5.60
2023-04-18T05:32:19.233Z,5.30
2023-04-18T05:34:45.934Z,5.85
2023-04-18T05:37:12.344Z,5.97
2023-04-18T05:39:39.529Z,5.90
2023-04-18T05:42:06.081Z,7.40
2023-04-18T05:44:32.545Z,5.90
2023-04-18T05:46:59.194Z,5.70
2023-04-18T05:49:25.741Z,5.68
2023-04-18T05:51:52.954Z,6.00
2023-04-18T05:54:21.472Z,6.30
2023-04-18T05:56:48.214Z,6.50
2023-04-18T05:59:14.675Z,7.95
2023-04-18T06:01:41.061Z,6.80
2023-04-18T06:04:08.567Z,5.50
2023-04-18T06:06:36.155Z,7.15
2023-04-18T06:09:02.639Z,5.40
2023-04-18T06:11:29.121Z,6.05
2023-04-18T06:13:58.254Z,6.32
2023-04-18T06:16:24.975Z,6.38
2023-04-18T06:18:51.403Z,5.25
2023-04-18T06:21:20.094Z,6.90
2023-04-18T06:23:46.470Z,5.18
2023-04-18T06:26:13.413Z,6.65
2023-04-18T06:28:39.990Z,6.47
2023-04-18T06:31:06.493Z,6.35
2023-04-18T06:33:33.354Z,5.83
2023-04-18T06:35:59.809Z,6.32
2023-04-18T06:38:26.217Z,6.00
2023-04-18T06:40:52.846Z,5.35
2023-04-18T06:43:19.268Z,6.20
2023-04-18T06:45:45.932Z,5.93
2023-04-18T06:48:12.389Z,6.13
2023-04-18T06:50:39.063Z,5.75
2023-04-18T06:53:05.645Z,5.18
2023-04-18T06:55:32.136Z,5.75
2023-04-18T06:58:00.371Z,5.37
2023-04-18T07:00:26.922Z,5.80
2023-04-18T07:02:53.533Z,5.25
2023-04-18T07:05:20.099Z,5.50
2023-04-18T07:07:46.593Z,5.75
2023-04-18T07:10:13.108Z,4.47
2023-04-18T07:12:39.517Z,6.03
2023-04-18T07:15:06.441Z,4.90
2023-04-18T07:17:32.978Z,4.93
2023-04-18T07:19:59.670Z,5.82
2023-04-18T07:22:26.158Z,5.17
2023-04-18T07:24:52.527Z,5.65
2023-04-18T07:27:18.892Z,5.50
2023-04-18T07:29:45.705Z,5.00
2023-04-18T07:32:12.208Z,5.60
2023-04-18T07:34:40.445Z,5.27
2023-04-18T07:37:07.356Z,4.90
2023-04-18T07:39:36.098Z,5.30
2023-04-18T07:42:05.860Z,4.32
2023-04-18T07:44:32.304Z,4.57
2023-04-18T07:46:58.829Z,4.07
2023-04-18T07:49:25.446Z,4.78
2023-04-18T07:51:51.856Z,5.72
2023-04-18T07:54:18.304Z,4.72
2023-04-18T07:56:44.967Z,5.00
2023-04-18T07:59:11.731Z,3.50
2023-04-18T08:01:38.402Z,4.25
2023-04-18T08:04:05.205Z,3.67
2023-04-18T08:06:34.849Z,4.55
2023-04-18T08:09:04.634Z,4.07
2023-04-18T08:11:32.320Z,3.73
2023-04-18T08:13:59.264Z,4.50
2023-04-18T08:16:26.148Z,4.50
2023-04-18T08:18:52.877Z,4.45
2023-04-18T08:21:20.121Z,3.88
2023-04-18T08:23:46.806Z,4.40
2023-04-18T08:26:13.330Z,3.85
2023-04-18T08:28:39.970Z,4.28
2023-04-18T08:31:06.410Z,4.93
2023-04-18T08:33:32.930Z,3.97
2023-04-18T08:35:59.734Z,4.27
2023-04-18T08:38:26.205Z,4.22
2023-04-18T08:40:52.608Z,3.95
2023-04-18T08:43:19.097Z,3.92
2023-04-18T08:45:45.850Z,4.60
2023-04-18T08:48:17.592Z,3.37
2023-04-18T08:50:45.123Z,3.90
2023-04-18T08:53:11.705Z,4.30
2023-04-18T08:55:38.314Z,3.33
2023-04-18T08:58:06.832Z,3.13
2023-04-18T09:00:33.677Z,3.60
2023-04-18T09:03:00.562Z,4.22
2023-04-18T09:05:27.478Z,3.95
2023-04-18T09:07:56.204Z,3.92
2023-04-18T09:10:34.917Z,3.42
2023-04-18T09:13:05.878Z,3.77
2023-04-18T09:15:32.664Z,3.95
2023-04-18T09:18:03.197Z,3.55
2023-04-18T09:20:40.899Z,5.60
2023-04-18T09:23:10.754Z,4.38
2023-04-18T09:25:45.446Z,4.30
2023-04-18T09:28:33.033Z,5.10
2023-04-18T09:31:15.534Z,4.05
2023-04-18T09:33:52.749Z,4.03
2023-04-18T09:36:31.600Z,4.03
2023-04-18T09:38:58.466Z,3.93
2023-04-18T09:41:24.845Z,3.58
2023-04-18T09:44:09.727Z,4.07
2023-04-18T09:46:38.035Z,4.85
2023-04-18T09:49:04.500Z,4.30
2023-04-18T09:51:31.794Z,4.30
2023-04-18T09:53:58.369Z,4.15
2023-04-18T09:56:27.636Z,3.60
2023-04-18T09:59:07.386Z,3.60
2023-04-18T10:01:34.584Z,3.88
2023-04-18T10:04:06.753Z,3.97
2023-04-18T10:06:42.109Z,3.90
2023-04-18T10:09:09.896Z,4.30
2023-04-18T10:11:36.830Z,3.50
2023-04-18T10:14:07.819Z,4.20
2023-04-18T10:16:36.262Z,3.73
2023-04-18T10:19:24.359Z,3.97
2023-04-18T10:21:52.260Z,3.95
2023-04-18T10:24:50.157Z,4.07
2023-04-18T10:27:17.635Z,4.60
2023-04-18T10:29:51.649Z,4.73
2023-04-18T10:32:27.817Z,5.00
2023-04-18T10:34:54.598Z,5.60
2023-04-18T10:37:21.071Z,4.03
2023-04-18T10:39:48.752Z,3.13
2023-04-18T10:42:15.285Z,2.90
2023-04-18T10:44:41.725Z,2.88
2023-04-18T10:47:08.231Z,2.88
2023-04-18T10:49:38.029Z,2.72
2023-04-18T10:52:07.562Z,2.75
2023-04-18T10:54:57.607Z,2.87
2023-04-18T10:57:25.873Z,2.95
2023-04-18T10:59:52.723Z,3.08
2023-04-18T11:02:26.413Z,3.65
2023-04-18T11:04:54.496Z,3.17
2023-04-18T11:07:32.409Z,2.93
2023-04-18T11:09:58.889Z,3.20
2023-04-18T11:12:29.690Z,3.85
2023-04-18T11:14:56.219Z,4.15
2023-04-18T11:17:25.272Z,3.58
2023-04-18T11:20:01.333Z,3.87
2023-04-18T11:22:28.058Z,4.05
2023-04-18T11:25:07.095Z,3.65
2023-04-18T11:27:33.982Z,4.25
2023-04-18T11:30:00.753Z,4.85
2023-04-18T11:32:27.465Z,5.07
2023-04-18T11:34:55.016Z,4.05
2023-04-18T11:37:21.824Z,4.93
2023-04-18T11:39:48.335Z,5.07
2023-04-18T11:42:14.896Z,5.50
2023-04-18T11:44:46.453Z,4.10
2023-04-18T11:47:27.180Z,4.55
2023-04-18T11:50:04.404Z,5.00
2023-04-18T11:52:32.282Z,5.45
2023-04-18T11:55:21.885Z,5.15
2023-04-18T11:57:56.842Z,5.63
2023-04-18T12:00:35.361Z,5.03
2023-04-18T12:03:07.862Z,5.43
2023-04-18T12:05:37.003Z,5.70
2023-04-18T12:08:17.228Z,6.03
2023-04-18T12:10:48.677Z,5.70
2023-04-18T12:13:15.208Z,5.25
2023-04-18T12:15:44.816Z,6.60
2023-04-18T12:18:13.087Z,5.72
2023-04-18T12:20:58.588Z,5.00
2023-04-18T12:23:35.413Z,5.27
2023-04-18T12:26:12.417Z,6.07
2023-04-18T12:28:38.879Z,5.50
2023-04-18T12:31:08.760Z,5.35
2023-04-18T12:33:38.132Z,5.82
2023-04-18T12:36:05.499Z,6.20
2023-04-18T12:38:32.009Z,5.97
2023-04-18T12:40:58.413Z,6.63
2023-04-18T12:43:25.634Z,6.53
2023-04-18T12:45:52.212Z,5.68
2023-04-18T12:48:18.684Z,5.70
2023-04-18T12:50:45.143Z,6.35
2023-04-18T12:53:11.570Z,6.70
2023-04-18T12:55:38.330Z,6.82
2023-04-18T12:58:05.005Z,6.70
2023-04-18T13:00:32.510Z,6.40
2023-04-18T13:02:59.489Z,5.90
2023-04-18T13:05:29.275Z,7.05
2023-04-18T13:08:15.365Z,7.55
2023-04-18T13:10:44.486Z,7.40
2023-04-18T13:13:10.878Z,6.83
2023-04-18T13:15:37.604Z,7.30
2023-04-18T13:18:06.301Z,6.90
2023-04-18T13:20:34.319Z,7.18
2023-04-18T13:23:02.939Z,7.40
2023-04-18T13:25:29.635Z,7.10
2023-04-18T13:27:58.597Z,8.35
2023-04-18T13:30:25.523Z,7.05
2023-04-18T13:32:52.328Z,6.95
2023-04-18T13:35:18.893Z,7.07
2023-04-18T13:37:46.234Z,7.73
2023-04-18T13:40:13.024Z,7.57
2023-04-18T13:42:39.427Z,8.38
2023-04-18T13:45:06.296Z,6.78
2023-04-18T13:47:33.067Z,7.93
2023-04-18T13:49:59.568Z,7.90
2023-04-18T13:52:26.275Z,7.10
2023-04-18T13:54:53.153Z,7.72
2023-04-18T13:57:19.720Z,7.90
2023-04-18T13:59:46.668Z,7.80
2023-04-18T14:02:13.382Z,7.43
2023-04-18T14:04:39.955Z,7.47
2023-04-18T14:07:07.982Z,6.68
2023-04-18T14:09:34.691Z,6.80
2023-04-18T14:12:02.002Z,6.30
2023-04-18T14:14:28.556Z,7.60
2023-04-18T14:16:55.507Z,6.20
2023-04-18T14:19:21.966Z,6.65
2023-04-18T14:21:48.511Z,6.63
2023-04-18T14:24:15.765Z,6.40
2023-04-18T14:26:42.260Z,6.93
2023-04-18T14:29:08.747Z,6.88
2023-04-18T14:31:35.365Z,7.20
2023-04-18T14:34:02.994Z,7.05
2023-04-18T14:36:29.421Z,7.25
2023-04-18T14:38:55.876Z,5.73
2023-04-18T14:41:22.300Z,6.78
2023-04-18T14:43:48.865Z,6.72
2023-04-18T14:46:16.486Z,6.10
2023-04-18T14:48:47.115Z,6.03
2023-04-18T14:51:15.703Z,6.27
2023-04-18T14:53:42.495Z,7.22
2023-04-18T14:56:08.887Z,6.57
2023-04-18T14:58:36.201Z,6.68
2023-04-18T15:01:03.954Z,6.65
2023-04-18T15:03:30.865Z,6.27
2023-04-18T15:05:57.517Z,5.93
2023-04-18T15:08:23.966Z,6.07
2023-04-18T15:10:50.475Z,7.15
2023-04-18T15:13:17.217Z,6.95
2023-04-18T15:15:51.081Z,6.30
2023-04-18T15:18:17.451Z,6.35
2023-04-18T15:20:43.999Z,5.80
2023-04-18T15:23:13.855Z,5.35
2023-04-18T15:25:41.520Z,5.35
2023-04-18T15:28:08.423Z,5.27
2023-04-18T15:30:35.002Z,5.35
2023-04-18T15:33:02.384Z,5.50
2023-04-18T15:35:28.928Z,5.18
2023-04-18T15:37:56.485Z,5.18
2023-04-18T15:40:23.201Z,5.73
2023-04-18T15:42:51.013Z,6.03
2023-04-18T15:45:17.419Z,5.78
2023-04-18T15:47:44.148Z,5.25
2023-04-18T15:50:11.111Z,5.97
2023-04-18T15:52:37.869Z,6.13
2023-04-18T15:55:05.488Z,5.97
2023-04-18T15:57:32.191Z,6.53
2023-04-18T15:59:59.606Z,5.32
2023-04-18T16:02:26.534Z,5.30
2023-04-18T16:04:53.121Z,5.40
2023-04-18T16:07:19.505Z,6.20
2023-04-18T16:09:45.884Z,5.07
2023-04-18T16:12:12.294Z,7.03
2023-04-18T16:14:38.730Z,4.80
2023-04-18T16:17:05.401Z,5.40
2023-04-18T16:19:33.337Z,5.80
2023-04-18T16:22:00.877Z,5.28
2023-04-18T16:24:27.465Z,4.80
2023-04-18T16:26:55.471Z,4.93
2023-04-18T16:29:22.079Z,4.90
2023-04-18T16:31:48.521Z,4.80
2023-04-18T16:34:15.728Z,4.78
2023-04-18T16:36:42.459Z,5.03
2023-04-18T16:39:08.895Z,4.43
2023-04-18T16:41:35.372Z,5.40
2023-04-18T16:44:01.862Z,4.95
2023-04-18T16:46:31.280Z,5.32
2023-04-18T16:48:58.508Z,5.10
2023-04-18T16:51:24.908Z,4.75
2023-04-18T16:53:51.288Z,5.10
2023-04-18T16:56:17.649Z,5.30
2023-04-18T16:58:44.005Z,6.38
2023-04-18T17:01:10.405Z,5.55
2023-04-18T17:03:37.388Z,5.53
2023-04-18T17:06:04.439Z,5.93
2023-04-18T17:08:32.892Z,4.80
2023-04-18T17:10:59.679Z,5.05
2023-04-18T17:13:27.135Z,4.95
2023-04-18T17:15:53.998Z,5.05
2023-04-18T17:18:20.638Z,5.07
2023-04-18T17:20:47.152Z,4.82
2023-04-18T17:23:13.696Z,5.20
2023-04-18T17:25:40.235Z,4.97
2023-04-18T17:28:06.656Z,4.80
2023-04-18T17:30:33.105Z,4.90
2023-04-18T17:32:59.653Z,4.53
2023-04-18T17:35:26.117Z,5.18
2023-04-18T17:37:52.893Z,5.07
2023-04-18T17:40:19.409Z,5.30
2023-04-18T17:42:45.790Z,4.97
2023-04-18T17:45:12.279Z,5.30
2023-04-18T17:47:38.784Z,5.20
2023-04-18T17:50:05.754Z,5.85
2023-04-18T17:52:32.515Z,5.60
2023-04-18T17:54:59.699Z,4.83
2023-04-18T17:57:26.647Z,5.15
2023-04-18T17:59:53.572Z,4.75
2023-04-18T18:02:20.315Z,5.35
2023-04-18T18:04:47.199Z,5.22
2023-04-18T18:07:13.686Z,5.40
2023-04-18T18:09:41.965Z,5.45
2023-04-18T18:12:09.912Z,5.25
2023-04-18T18:14:36.519Z,5.22
2023-04-18T18:17:03.476Z,5.75
2023-04-18T18:19:29.950Z,5.57
2023-04-18T18:21:56.326Z,4.75
2023-04-18T18:24:25.082Z,5.25
2023-04-18T18:26:51.869Z,5.15
2023-04-18T18:29:19.256Z,4.93
2023-04-18T18:31:45.918Z,5.73
2023-04-18T18:34:12.481Z,4.57
2023-04-18T18:36:39.378Z,5.38
2023-04-18T18:39:05.805Z,6.00
2023-04-18T18:41:32.236Z,4.70
2023-04-18T18:43:58.638Z,5.33
2023-04-18T18:46:25.272Z,4.28
2023-04-18T18:48:52.031Z,4.95
2023-04-18T18:51:19.147Z,4.38
2023-04-18T18:53:46.602Z,4.75
2023-04-18T18:56:13.201Z,4.37
2023-04-18T18:58:40.408Z,4.72
2023-04-18T19:01:06.799Z,4.47
2023-04-18T19:03:34.675Z,5.20
2023-04-18T19:06:03.920Z,4.78
2023-04-18T19:08:30.861Z,4.63
2023-04-18T19:10:57.308Z,5.13
2023-04-18T19:13:24.171Z,4.43
2023-04-18T19:15:51.280Z,4.20
2023-04-18T19:18:20.361Z,4.60
2023-04-18T19:20:47.170Z,3.97
2023-04-18T19:23:13.565Z,3.88
2023-04-18T19:25:40.043Z,3.63
2023-04-18T19:28:08.878Z,3.42
2023-04-18T19:30:35.360Z,3.25
2023-04-18T19:33:01.870Z,3.30
2023-04-18T19:35:28.407Z,3.45
2023-04-18T19:38:01.325Z,3.60
2023-04-18T19:40:28.604Z,3.40
2023-04-18T19:42:55.237Z,3.35
2023-04-18T19:45:21.674Z,3.60
2023-04-18T19:47:48.114Z,4.15
2023-04-18T19:50:14.686Z,3.97
2023-04-18T19:52:41.352Z,3.92
2023-04-18T19:55:08.168Z,4.07
2023-04-18T19:57:41.380Z,3.67
2023-04-18T20:00:12.810Z,4.00
2023-04-18T20:02:40.792Z,3.53
2023-04-18T20:05:08.729Z,3.75
2023-04-18T20:07:35.879Z,4.10
2023-04-18T20:10:02.380Z,3.60
2023-04-18T20:12:28.852Z,4.70
2023-04-18T20:14:55.921Z,4.85
2023-04-18T20:17:22.351Z,4.93
2023-04-18T20:19:49.743Z,3.95
2023-04-18T20:22:16.914Z,4.30
2023-04-18T20:24:45.000Z,3.78
2023-04-18T20:27:12.031Z,4.15
2023-04-18T20:29:38.482Z,3.47
2023-04-18T20:32:05.725Z,3.83
2023-04-18T20:34:32.477Z,3.73
2023-04-18T20:36:59.892Z,3.72
2023-04-18T20:39:26.322Z,4.00
2023-04-18T20:41:54.306Z,3.88
2023-04-18T20:44:21.693Z,4.43
2023-04-18T20:46:48.118Z,3.07
2023-04-18T20:49:15.014Z,3.38
2023-04-18T20:51:41.554Z,4.03
2023-04-18T20:54:08.137Z,3.25
2023-04-18T20:56:36.873Z,3.78
2023-04-18T20:59:04.780Z,3.57
2023-04-18T21:01:31.526Z,3.72
2023-04-18T21:03:58.324Z,3.38
2023-04-18T21:06:24.906Z,3.75
2023-04-18T21:08:51.266Z,4.18
2023-04-18T21:11:17.673Z,3.60
2023-04-18T21:13:44.100Z,3.83
2023-04-18T21:16:10.812Z,3.95
2023-04-18T21:18:37.284Z,3.63
2023-04-18T21:21:04.541Z,3.95
2023-04-18T21:23:30.995Z,3.77
2023-04-18T21:25:57.449Z,3.60
2023-04-18T21:28:23.852Z,3.80
2023-04-18T21:30:50.698Z,3.67
2023-04-18T21:33:17.127Z,3.92
2023-04-18T21:35:43.513Z,3.47
2023-04-18T21:38:09.906Z,3.60
2023-04-18T21:40:37.555Z,3.80
2023-04-18T21:43:04.216Z,3.45
2023-04-18T21:45:30.621Z,3.80
2023-04-18T21:47:57.108Z,3.50
2023-04-18T21:50:23.669Z,3.58
2023-04-18T21:52:50.141Z,3.63
2023-04-18T21:55:17.956Z,3.80
2023-04-18T21:57:44.425Z,3.78
2023-04-18T22:00:11.364Z,3.07
2023-04-18T22:02:37.932Z,3.55
2023-04-18T22:05:04.867Z,3.50
2023-04-18T22:07:31.300Z,3.33
2023-04-18T22:09:59.646Z,3.10
2023-04-18T22:12:26.436Z,3.90
2023-04-18T22:14:53.045Z,3.50
2023-04-18T22:17:20.908Z,3.28
2023-04-18T22:19:49.932Z,3.00
2023-04-18T22:22:16.660Z,4.10
2023-04-18T22:24:44.926Z,3.20
2023-04-18T22:27:12.550Z,3.65
2023-04-18T22:29:38.946Z,3.78
2023-04-18T22:32:05.556Z,3.95
2023-04-18T22:34:31.942Z,3.92
2023-04-18T22:36:58.604Z,3.30
2023-04-18T22:39:25.650Z,3.38
2023-04-18T22:41:52.123Z,3.85
2023-04-18T22:44:18.528Z,3.67
2023-04-18T22:46:45.532Z,3.83
2023-04-18T22:49:11.978Z,4.10
2023-04-18T22:51:38.686Z,3.78
2023-04-18T22:54:05.493Z,3.60
2023-04-18T22:56:31.958Z,3.78
2023-04-18T22:58:58.349Z,3.65
2023-04-18T23:01:24.791Z,3.70
2023-04-18T23:03:51.293Z,4.05
2023-04-18T23:06:17.840Z,4.10
2023-04-18T23:08:44.302Z,4.00
2023-04-18T23:11:11.127Z,4.50
2023-04-18T23:13:37.558Z,3.77
2023-04-18T23:16:04.170Z,3.85
2023-04-18T23:18:30.700Z,3.97
2023-04-18T23:20:57.078Z,3.50
2023-04-18T23:23:23.463Z,3.95
2023-04-18T23:25:49.840Z,3.77
2023-04-18T23:28:17.106Z,4.32
2023-04-18T23:30:43.552Z,3.90
2023-04-18T23:33:10.094Z,4.03
2023-04-18T23:35:36.533Z,3.92
2023-04-18T23:38:02.938Z,5.10
2023-04-18T23:40:29.642Z,4.07
2023-04-18T23:42:56.156Z,4.45
2023-04-18T23:45:24.311Z,3.90
2023-04-18T23:47:51.014Z,3.97
2023-04-18T23:50:17.560Z,4.93
2023-04-18T23:52:43.968Z,4.60
2023-04-18T23:55:10.371Z,4.25
2023-04-18T23:57:36.846Z,4.88
